Dexter, Kansas
Current Conditions -  °F | °C
As of 2:54 AM on Monday 20 Oct 2014 (Local Time) from KWLD Reporting Station
Overcast Overcast  
Wind Chill: 60°   Ceiling: 5000
Heat Index: 60°   Visibility: 10mi
Dew Point: 55°   Wind: 6mph
Humidity: 83%   Direction: 160°SSE
Pressure: 30.03"   Gusts: NA
Location:  37.18°N, 96.71°W
Report Text: KWLD 200754Z AUTO 16005KT 10SM BKN050 BKN065 OVC090 16/13 A3003 RMK AO2 SLP163 T01560128
Loading
Personal Weather Stations






























Interactive Weather Map
Tropical Storm Tracking
New forecast layout! Learn more

10-Day Weather Forecast

Advertisements
Track Severe Weather on mobile